sensor_id;sensor_type;location;lat;lon;timestamp;pressure;altitude;pressure_sealevel;temperature;humidity
49311;BME280;35177;45.900;5.946;2023-02-18T00:00:10;98984.44;;;1.35;100.00
49311;BME280;35177;45.900;5.946;2023-02-18T00:02:37;98985.38;;;1.22;100.00
49311;BME280;35177;45.900;5.946;2023-02-18T00:05:03;98979.50;;;0.86;100.00
49311;BME280;35177;45.900;5.946;2023-02-18T00:07:33;98983.50;;;0.77;100.00
49311;BME280;35177;45.900;5.946;2023-02-18T00:09:59;98979.63;;;0.98;100.00
49311;BME280;35177;45.900;5.946;2023-02-18T00:12:25;98975.59;;;1.01;100.00
49311;BME280;35177;45.900;5.946;2023-02-18T00:14:50;98975.59;;;1.01;100.00
49311;BME280;35177;45.900;5.946;2023-02-18T00:17:16;98967.16;;;1.09;100.00
49311;BME280;35177;45.900;5.946;2023-02-18T00:19:41;98965.97;;;1.30;100.00
49311;BME280;35177;45.900;5.946;2023-02-18T00:22:07;98958.56;;;1.63;100.00
49311;BME280;35177;45.900;5.946;2023-02-18T00:24:32;98957.72;;;1.62;100.00
49311;BME280;35177;45.900;5.946;2023-02-18T00:26:57;98965.16;;;1.23;100.00
49311;BME280;35177;45.900;5.946;2023-02-18T00:29:23;98953.06;;;1.37;100.00
49311;BME280;35177;45.900;5.946;2023-02-18T00:31:48;98966.66;;;1.51;100.00
49311;BME280;35177;45.900;5.946;2023-02-18T00:34:14;98955.78;;;1.44;100.00
49311;BME280;35177;45.900;5.946;2023-02-18T00:36:40;98960.00;;;1.40;100.00
49311;BME280;35177;45.900;5.946;2023-02-18T00:39:08;98964.56;;;1.21;100.00
49311;BME280;35177;45.900;5.946;2023-02-18T00:41:34;98964.56;;;1.21;100.00
49311;BME280;35177;45.900;5.946;2023-02-18T00:44:00;98964.50;;;1.27;100.00
49311;BME280;35177;45.900;5.946;2023-02-18T00:46:26;98965.19;;;0.84;100.00
49311;BME280;35177;45.900;5.946;2023-02-18T00:48:53;98963.91;;;0.87;100.00
49311;BME280;35177;45.900;5.946;2023-02-18T00:51:18;98957.53;;;0.61;100.00
49311;BME280;35177;45.900;5.946;2023-02-18T00:53:44;98966.41;;;0.43;100.00
49311;BME280;35177;45.900;5.946;2023-02-18T00:56:10;98962.22;;;0.47;100.00
49311;BME280;35177;45.900;5.946;2023-02-18T00:58:36;98964.09;;;0.46;100.00
49311;BME280;35177;45.900;5.946;2023-02-18T01:01:02;98962.22;;;0.47;100.00
49311;BME280;35177;45.900;5.946;2023-02-18T01:03:28;98959.94;;;0.30;100.00
49311;BME280;35177;45.900;5.946;2023-02-18T01:05:54;98965.47;;;0.69;100.00
49311;BME280;35177;45.900;5.946;2023-02-18T01:08:20;98952.50;;;0.58;100.00
49311;BME280;35177;45.900;5.946;2023-02-18T01:10:48;98951.69;;;0.51;100.00
49311;BME280;35177;45.900;5.946;2023-02-18T01:13:15;98948.50;;;0.60;100.00
49311;BME280;35177;45.900;5.946;2023-02-18T01:15:41;98956.63;;;0.74;100.00
49311;BME280;35177;45.900;5.946;2023-02-18T01:18:07;98953.44;;;0.77;100.00
49311;BME280;35177;45.900;5.946;2023-02-18T01:20:37;98950.31;;;0.80;100.00
49311;BME280;35177;45.900;5.946;2023-02-18T01:23:03;98968.03;;;1.03;100.00
49311;BME280;35177;45.900;5.946;2023-02-18T01:25:29;98964.59;;;1.14;100.00
49311;BME280;35177;45.900;5.946;2023-02-18T01:27:55;98960.63;;;1.10;100.00
49311;BME280;35177;45.900;5.946;2023-02-18T01:30:21;98966.72;;;1.12;100.00
49311;BME280;35177;45.900;5.946;2023-02-18T01:32:47;98964.06;;;0.99;100.00
49311;BME280;35177;45.900;5.946;2023-02-18T01:35:16;98966.00;;;0.91;100.00
49311;BME280;35177;45.900;5.946;2023-02-18T01:37:42;98960.75;;;0.90;100.00
49311;BME280;35177;45.900;5.946;2023-02-18T01:40:10;98963.91;;;0.93;100.00
49311;BME280;35177;45.900;5.946;2023-02-18T01:42:36;98958.03;;;0.83;100.00
49311;BME280;35177;45.900;5.946;2023-02-18T01:48:15;98957.25;;;0.76;100.00
49311;BME280;35177;45.900;5.946;2023-02-18T01:50:49;98961.19;;;0.87;100.00
49311;BME280;35177;45.900;5.946;2023-02-18T01:53:19;98959.06;;;0.89;100.00
49311;BME280;35177;45.900;5.946;2023-02-18T01:55:46;98957.09;;;0.64;100.00
49311;BME280;35177;45.900;5.946;2023-02-18T01:58:13;98951.19;;;0.74;100.00
49311;BME280;35177;45.900;5.946;2023-02-18T02:00:39;98950.69;;;0.84;100.00
49311;BME280;35177;45.900;5.946;2023-02-18T02:03:04;98946.72;;;0.79;100.00
49311;BME280;35177;45.900;5.946;2023-02-18T02:05:31;98953.44;;;0.84;100.00
49311;BME280;35177;45.900;5.946;2023-02-18T02:07:58;98940.66;;;0.71;100.00
49311;BME280;35177;45.900;5.946;2023-02-18T02:10:57;98948.69;;;0.59;100.00
49311;BME280;35177;45.900;5.946;2023-02-18T02:13:28;98940.88;;;0.69;100.00
49311;BME280;35177;45.900;5.946;2023-02-18T02:17:01;98942.16;;;0.67;100.00
49311;BME280;35177;45.900;5.946;2023-02-18T02:33:11;98928.38;;;0.48;100.00
49311;BME280;35177;45.900;5.946;2023-02-18T02:35:59;98926.97;;;0.32;100.00
49311;BME280;35177;45.900;5.946;2023-02-18T02:38:33;98924.41;;;0.44;100.00
49311;BME280;35177;45.900;5.946;2023-02-18T02:41:16;98924.06;;;0.13;100.00
49311;BME280;35177;45.900;5.946;2023-02-18T02:44:22;98920.47;;;0.20;100.00
49311;BME280;35177;45.900;5.946;2023-02-18T02:46:53;98922.53;;;0.38;100.00
49311;BME280;35177;45.900;5.946;2023-02-18T02:49:57;98923.22;;;0.20;100.00
49311;BME280;35177;45.900;5.946;2023-02-18T02:52:30;98925.47;;;0.36;100.00
49311;BME280;35177;45.900;5.946;2023-02-18T02:54:57;98924.22;;;0.39;100.00
49311;BME280;35177;45.900;5.946;2023-02-18T02:59:51;98918.56;;;0.34;100.00
49311;BME280;35177;45.900;5.946;2023-02-18T03:02:40;98922.19;;;0.14;100.00
49311;BME280;35177;45.900;5.946;2023-02-18T03:11:09;98918.63;;;0.13;100.00
49311;BME280;35177;45.900;5.946;2023-02-18T03:14:07;98919.91;;;-0.03;100.00
49311;BME280;35177;45.900;5.946;2023-02-18T03:19:27;98916.84;;;-0.20;100.00
49311;BME280;35177;45.900;5.946;2023-02-18T03:22:11;98923.13;;;-0.19;100.00
49311;BME280;35177;45.900;5.946;2023-02-18T03:24:43;98924.09;;;0.07;100.00
49311;BME280;35177;45.900;5.946;2023-02-18T03:27:33;98922.19;;;0.07;100.00
49311;BME280;35177;45.900;5.946;2023-02-18T03:30:06;98927.03;;;0.12;100.00
49311;BME280;35177;45.900;5.946;2023-02-18T03:32:35;98928.66;;;0.26;100.00
49311;BME280;35177;45.900;5.946;2023-02-18T03:35:06;98927.75;;;0.39;100.00
49311;BME280;35177;45.900;5.946;2023-02-18T03:37:39;98925.84;;;0.53;100.00
49311;BME280;35177;45.900;5.946;2023-02-18T03:40:08;98933.59;;;0.56;100.00
49311;BME280;35177;45.900;5.946;2023-02-18T03:42:34;98941.03;;;0.81;100.00
49311;BME280;35177;45.900;5.946;2023-02-18T03:44:59;98934.00;;;0.99;100.00
49311;BME280;35177;45.900;5.946;2023-02-18T03:47:25;98934.59;;;1.01;100.00
49311;BME280;35177;45.900;5.946;2023-02-18T03:49:51;98924.63;;;1.13;100.00
49311;BME280;35177;45.900;5.946;2023-02-18T03:52:17;98926.81;;;1.04;100.00
49311;BME280;35177;45.900;5.946;2023-02-18T03:54:42;98925.66;;;0.87;100.00
49311;BME280;35177;45.900;5.946;2023-02-18T03:57:08;98925.63;;;0.93;100.00
49311;BME280;35177;45.900;5.946;2023-02-18T03:59:33;98928.63;;;0.78;100.00
49311;BME280;35177;45.900;5.946;2023-02-18T04:01:58;98917.13;;;0.70;100.00
49311;BME280;35177;45.900;5.946;2023-02-18T04:04:25;98921.44;;;0.45;100.00
49311;BME280;35177;45.900;5.946;2023-02-18T04:06:51;98920.50;;;0.65;100.00
49311;BME280;35177;45.900;5.946;2023-02-18T04:09:16;98919.22;;;0.74;100.00
49311;BME280;35177;45.900;5.946;2023-02-18T04:11:42;98919.44;;;0.66;100.00
49311;BME280;35177;45.900;5.946;2023-02-18T04:14:08;98914.56;;;0.29;100.00
49311;BME280;35177;45.900;5.946;2023-02-18T04:16:33;98919.84;;;0.31;100.00
49311;BME280;35177;45.900;5.946;2023-02-18T04:18:59;98914.78;;;0.35;100.00
49311;BME280;35177;45.900;5.946;2023-02-18T04:21:24;98929.63;;;0.45;100.00
49311;BME280;35177;45.900;5.946;2023-02-18T04:23:50;98925.25;;;0.44;100.00
49311;BME280;35177;45.900;5.946;2023-02-18T04:26:15;98923.09;;;0.53;100.00
49311;BME280;35177;45.900;5.946;2023-02-18T04:28:41;98932.75;;;0.56;100.00
49311;BME280;35177;45.900;5.946;2023-02-18T04:31:06;98935.66;;;0.68;100.00
49311;BME280;35177;45.900;5.946;2023-02-18T04:33:32;98940.84;;;0.76;100.00
49311;BME280;35177;45.900;5.946;2023-02-18T04:35:57;98935.53;;;0.88;100.00
49311;BME280;35177;45.900;5.946;2023-02-18T04:38:23;98937.63;;;0.92;100.00
49311;BME280;35177;45.900;5.946;2023-02-18T04:40:48;98940.75;;;0.96;100.00
49311;BME280;35177;45.900;5.946;2023-02-18T04:43:14;98935.47;;;1.01;100.00
49311;BME280;35177;45.900;5.946;2023-02-18T04:45:39;98936.16;;;0.90;100.00
49311;BME280;35177;45.900;5.946;2023-02-18T04:48:05;98941.00;;;0.88;100.00
49311;BME280;35177;45.900;5.946;2023-02-18T04:50:30;98941.97;;;1.00;100.00
49311;BME280;35177;45.900;5.946;2023-02-18T04:52:56;98947.03;;;0.96;100.00
49311;BME280;35177;45.900;5.946;2023-02-18T04:55:22;98945.53;;;1.01;100.00
49311;BME280;35177;45.900;5.946;2023-02-18T04:57:47;98945.75;;;0.99;100.00
49311;BME280;35177;45.900;5.946;2023-02-18T05:00:15;98945.94;;;1.04;100.00
49311;BME280;35177;45.900;5.946;2023-02-18T05:02:41;98939.59;;;1.10;100.00
49311;BME280;35177;45.900;5.946;2023-02-18T05:05:07;98939.47;;;0.99;100.00
49311;BME280;35177;45.900;5.946;2023-02-18T05:07:32;98937.78;;;0.98;100.00
49311;BME280;35177;45.900;5.946;2023-02-18T05:09:58;98935.97;;;1.17;100.00
49311;BME280;35177;45.900;5.946;2023-02-18T05:12:23;98938.66;;;1.23;100.00
49311;BME280;35177;45.900;5.946;2023-02-18T05:14:49;98937.72;;;1.36;100.00
49311;BME280;35177;45.900;5.946;2023-02-18T05:17:14;98937.69;;;1.43;100.00
49311;BME280;35177;45.900;5.946;2023-02-18T05:19:40;98926.16;;;1.59;100.00
49311;BME280;35177;45.900;5.946;2023-02-18T05:22:06;98923.00;;;1.63;100.00
49311;BME280;35177;45.900;5.946;2023-02-18T05:24:31;98928.63;;;1.68;100.00
49311;BME280;35177;45.900;5.946;2023-02-18T05:26:57;98930.09;;;1.70;100.00
49311;BME280;35177;45.900;5.946;2023-02-18T05:29:22;98932.16;;;1.75;100.00
49311;BME280;35177;45.900;5.946;2023-02-18T05:31:48;98924.91;;;1.81;100.00
49311;BME280;35177;45.900;5.946;2023-02-18T05:34:13;98927.31;;;1.77;100.00
49311;BME280;35177;45.900;5.946;2023-02-18T05:36:39;98934.59;;;1.83;100.00
49311;BME280;35177;45.900;5.946;2023-02-18T05:39:04;98933.09;;;1.87;100.00
49311;BME280;35177;45.900;5.946;2023-02-18T05:41:30;98929.06;;;1.90;100.00
49311;BME280;35177;45.900;5.946;2023-02-18T05:43:55;98922.25;;;1.99;100.00
49311;BME280;35177;45.900;5.946;2023-02-18T05:46:39;98912.09;;;2.00;100.00
49311;BME280;35177;45.900;5.946;2023-02-18T05:49:05;98913.56;;;2.02;100.00
49311;BME280;35177;45.900;5.946;2023-02-18T05:51:30;98913.94;;;2.06;100.00
49311;BME280;35177;45.900;5.946;2023-02-18T05:53:56;98922.16;;;2.06;100.00
49311;BME280;35177;45.900;5.946;2023-02-18T05:56:22;98917.75;;;2.05;100.00
49311;BME280;35177;45.900;5.946;2023-02-18T05:58:47;98919.69;;;1.98;100.00
49311;BME280;35177;45.900;5.946;2023-02-18T06:01:13;98916.56;;;1.94;100.00
49311;BME280;35177;45.900;5.946;2023-02-18T06:03:38;98923.16;;;1.93;100.00
49311;BME280;35177;45.900;5.946;2023-02-18T06:06:04;98909.81;;;1.97;100.00
49311;BME280;35177;45.900;5.946;2023-02-18T06:08:29;98918.78;;;1.85;100.00
49311;BME280;35177;45.900;5.946;2023-02-18T06:10:55;98918.19;;;1.83;100.00
49311;BME280;35177;45.900;5.946;2023-02-18T06:13:20;98922.13;;;1.87;100.00
49311;BME280;35177;45.900;5.946;2023-02-18T06:15:49;98913.31;;;1.85;100.00
49311;BME280;35177;45.900;5.946;2023-02-18T06:18:16;98919.84;;;1.84;100.00
49311;BME280;35177;45.900;5.946;2023-02-18T06:20:41;98922.56;;;1.84;100.00
49311;BME280;35177;45.900;5.946;2023-02-18T06:23:07;98923.81;;;1.88;100.00
49311;BME280;35177;45.900;5.946;2023-02-18T06:25:32;98921.66;;;1.90;100.00
49311;BME280;35177;45.900;5.946;2023-02-18T06:27:58;98920.16;;;1.95;100.00
49311;BME280;35177;45.900;5.946;2023-02-18T06:30:23;98919.56;;;1.92;100.00
49311;BME280;35177;45.900;5.946;2023-02-18T06:32:48;98923.78;;;1.70;100.00
49311;BME280;35177;45.900;5.946;2023-02-18T06:35:14;98922.69;;;1.71;100.00
49311;BME280;35177;45.900;5.946;2023-02-18T06:37:40;98929.81;;;1.53;100.00
49311;BME280;35177;45.900;5.946;2023-02-18T06:40:06;98923.91;;;1.56;100.00
49311;BME280;35177;45.900;5.946;2023-02-18T06:42:31;98930.31;;;1.69;100.00
49311;BME280;35177;45.900;5.946;2023-02-18T06:44:57;98920.66;;;1.66;100.00
49311;BME280;35177;45.900;5.946;2023-02-18T06:47:22;98917.47;;;1.69;100.00
49311;BME280;35177;45.900;5.946;2023-02-18T06:49:48;98929.19;;;1.76;100.00
49311;BME280;35177;45.900;5.946;2023-02-18T06:52:13;98920.06;;;1.83;100.00
49311;BME280;35177;45.900;5.946;2023-02-18T06:54:39;98915.97;;;1.73;100.00
49311;BME280;35177;45.900;5.946;2023-02-18T06:57:04;98918.94;;;1.90;100.00
49311;BME280;35177;45.900;5.946;2023-02-18T06:59:30;98910.97;;;2.07;100.00
49311;BME280;35177;45.900;5.946;2023-02-18T07:01:55;98907.09;;;2.15;100.00
49311;BME280;35177;45.900;5.946;2023-02-18T07:04:21;98909.00;;;2.15;100.00
49311;BME280;35177;45.900;5.946;2023-02-18T07:06:47;98903.50;;;2.52;100.00
49311;BME280;35177;45.900;5.946;2023-02-18T07:09:12;98898.56;;;2.42;100.00
49311;BME280;35177;45.900;5.946;2023-02-18T07:11:38;98895.25;;;2.21;100.00
49311;BME280;35177;45.900;5.946;2023-02-18T07:14:03;98893.56;;;2.20;100.00
49311;BME280;35177;45.900;5.946;2023-02-18T07:16:29;98895.31;;;2.15;100.00
49311;BME280;35177;45.900;5.946;2023-02-18T07:18:54;98899.19;;;2.07;100.00
49311;BME280;35177;45.900;5.946;2023-02-18T07:21:20;98897.22;;;1.96;100.00
49311;BME280;35177;45.900;5.946;2023-02-18T07:23:45;98904.72;;;2.00;100.00
49311;BME280;35177;45.900;5.946;2023-02-18T07:26:13;98898.03;;;2.15;100.00
49311;BME280;35177;45.900;5.946;2023-02-18T07:28:39;98893.81;;;2.19;100.00
49311;BME280;35177;45.900;5.946;2023-02-18T07:31:06;98895.66;;;2.37;100.00
49311;BME280;35177;45.900;5.946;2023-02-18T07:33:32;98894.16;;;2.41;100.00
49311;BME280;35177;45.900;5.946;2023-02-18T07:39:19;98902.31;;;2.78;100.00
49311;BME280;35177;45.900;5.946;2023-02-18T07:41:46;98893.75;;;3.29;100.00
49311;BME280;35177;45.900;5.946;2023-02-18T07:44:12;98893.69;;;3.83;100.00
49311;BME280;35177;45.900;5.946;2023-02-18T07:46:39;98892.63;;;3.96;100.00
49311;BME280;35177;45.900;5.946;2023-02-18T07:49:05;98894.50;;;4.07;100.00
49311;BME280;35177;45.900;5.946;2023-02-18T07:51:31;98886.44;;;4.41;100.00
49311;BME280;35177;45.900;5.946;2023-02-18T07:53:56;98895.50;;;4.82;100.00
49311;BME280;35177;45.900;5.946;2023-02-18T07:56:22;98889.25;;;5.33;100.00
49311;BME280;35177;45.900;5.946;2023-02-18T07:58:47;98888.91;;;5.63;100.00
49311;BME280;35177;45.900;5.946;2023-02-18T08:01:14;98878.22;;;6.01;100.00
49311;BME280;35177;45.900;5.946;2023-02-18T08:03:40;98880.63;;;6.37;100.00
49311;BME280;35177;45.900;5.946;2023-02-18T08:06:06;98882.09;;;6.45;100.00
49311;BME280;35177;45.900;5.946;2023-02-18T08:08:32;98884.53;;;6.41;100.00
49311;BME280;35177;45.900;5.946;2023-02-18T08:11:01;98875.63;;;6.56;100.00
49311;BME280;35177;45.900;5.946;2023-02-18T08:13:32;98876.72;;;6.33;100.00
49311;BME280;35177;45.900;5.946;2023-02-18T08:15:57;98880.75;;;6.47;100.00
49311;BME280;35177;45.900;5.946;2023-02-18T08:18:25;98883.31;;;6.76;100.00
49311;BME280;35177;45.900;5.946;2023-02-18T08:20:51;98883.41;;;6.86;100.00
49311;BME280;35177;45.900;5.946;2023-02-18T08:23:21;98877.06;;;7.13;100.00
49311;BME280;35177;45.900;5.946;2023-02-18T08:25:51;98881.47;;;7.42;100.00
49311;BME280;35177;45.900;5.946;2023-02-18T08:28:18;98878.16;;;7.45;100.00
49311;BME280;35177;45.900;5.946;2023-02-18T08:30:45;98875.47;;;7.50;100.00
49311;BME280;35177;45.900;5.946;2023-02-18T08:33:11;98873.88;;;7.59;100.00
49311;BME280;35177;45.900;5.946;2023-02-18T08:35:37;98877.72;;;7.96;100.00
49311;BME280;35177;45.900;5.946;2023-02-18T08:38:04;98876.00;;;7.47;100.00
49311;BME280;35177;45.900;5.946;2023-02-18T08:40:30;98886.88;;;7.59;100.00
49311;BME280;35177;45.900;5.946;2023-02-18T08:42:55;98876.84;;;8.33;100.00
49311;BME280;35177;45.900;5.946;2023-02-18T08:45:21;98882.66;;;8.95;100.00
49311;BME280;35177;45.900;5.946;2023-02-18T08:47:46;98886.00;;;9.12;100.00
49311;BME280;35177;45.900;5.946;2023-02-18T08:50:11;98885.75;;;9.40;100.00
49311;BME280;35177;45.900;5.946;2023-02-18T08:52:38;98888.84;;;9.79;100.00
49311;BME280;35177;45.900;5.946;2023-02-18T08:55:04;98882.44;;;9.79;100.00
49311;BME280;35177;45.900;5.946;2023-02-18T08:57:30;98883.28;;;9.79;100.00
49311;BME280;35177;45.900;5.946;2023-02-18T08:59:55;98882.69;;;10.03;100.00
49311;BME280;35177;45.900;5.946;2023-02-18T09:02:21;98892.38;;;10.21;100.00
49311;BME280;35177;45.900;5.946;2023-02-18T09:04:46;98887.53;;;10.68;100.00
49311;BME280;35177;45.900;5.946;2023-02-18T09:07:12;98889.19;;;11.19;100.00
49311;BME280;35177;45.900;5.946;2023-02-18T09:09:37;98880.41;;;11.41;100.00
49311;BME280;35177;45.900;5.946;2023-02-18T09:12:03;98884.00;;;11.47;100.00
49311;BME280;35177;45.900;5.946;2023-02-18T09:14:29;98885.13;;;11.46;100.00
49311;BME280;35177;45.900;5.946;2023-02-18T09:16:56;98883.19;;;11.47;100.00
49311;BME280;35177;45.900;5.946;2023-02-18T09:19:21;98889.22;;;11.54;100.00
49311;BME280;35177;45.900;5.946;2023-02-18T09:21:47;98885.75;;;11.72;100.00
49311;BME280;35177;45.900;5.946;2023-02-18T09:24:12;98884.03;;;12.11;100.00
49311;BME280;35177;45.900;5.946;2023-02-18T09:26:38;98895.19;;;12.35;100.00
49311;BME280;35177;45.900;5.946;2023-02-18T09:29:04;98883.59;;;12.52;100.00
49311;BME280;35177;45.900;5.946;2023-02-18T09:31:30;98888.84;;;12.78;100.00
49311;BME280;35177;45.900;5.946;2023-02-18T09:33:58;98889.28;;;13.48;100.00
49311;BME280;35177;45.900;5.946;2023-02-18T09:36:24;98892.16;;;13.62;98.00
49311;BME280;35177;45.900;5.946;2023-02-18T09:38:50;98895.47;;;13.97;88.79
49311;BME280;35177;45.900;5.946;2023-02-18T09:43:48;98891.94;;;14.52;83.44
49311;BME280;35177;45.900;5.946;2023-02-18T09:46:23;98885.44;;;14.85;76.74
49311;BME280;35177;45.900;5.946;2023-02-18T09:48:52;98883.94;;;15.15;77.75
49311;BME280;35177;45.900;5.946;2023-02-18T09:51:18;98880.84;;;15.76;70.44
49311;BME280;35177;45.900;5.946;2023-02-18T09:53:44;98881.91;;;15.66;64.70
49311;BME280;35177;45.900;5.946;2023-02-18T09:56:17;98876.31;;;15.66;65.51
49311;BME280;35177;45.900;5.946;2023-02-18T09:58:46;98872.28;;;16.27;60.04
49311;BME280;35177;45.900;5.946;2023-02-18T10:01:19;98874.50;;;16.47;57.34
49311;BME280;35177;45.900;5.946;2023-02-18T10:03:46;98865.09;;;16.43;58.45
49311;BME280;35177;45.900;5.946;2023-02-18T10:06:17;98865.44;;;16.10;62.63
49311;BME280;35177;45.900;5.946;2023-02-18T10:08:46;98865.19;;;16.29;60.20
49311;BME280;35177;45.900;5.946;2023-02-18T10:14:21;98855.25;;;17.12;56.80
49311;BME280;35177;45.900;5.946;2023-02-18T10:16:48;98853.50;;;16.76;57.45
49311;BME280;35177;45.900;5.946;2023-02-18T10:19:29;98843.69;;;16.96;59.64
49311;BME280;35177;45.900;5.946;2023-02-18T10:21:56;98852.50;;;16.72;59.13
49311;BME280;35177;45.900;5.946;2023-02-18T10:24:30;98848.69;;;17.34;56.69
49311;BME280;35177;45.900;5.946;2023-02-18T10:26:57;98844.66;;;16.92;57.50
49311;BME280;35177;45.900;5.946;2023-02-18T10:29:24;98850.22;;;16.74;59.87
49311;BME280;35177;45.900;5.946;2023-02-18T10:31:56;98846.22;;;17.33;53.97
49311;BME280;35177;45.900;5.946;2023-02-18T10:34:29;98842.56;;;16.57;54.68
49311;BME280;35177;45.900;5.946;2023-02-18T10:36:59;98849.63;;;16.95;55.17
49311;BME280;35177;45.900;5.946;2023-02-18T10:39:50;98831.41;;;16.75;56.31
49311;BME280;35177;45.900;5.946;2023-02-18T10:42:38;98840.91;;;17.14;54.96
49311;BME280;35177;45.900;5.946;2023-02-18T10:45:30;98839.41;;;16.99;57.37
49311;BME280;35177;45.900;5.946;2023-02-18T10:48:17;98832.09;;;16.31;58.08
49311;BME280;35177;45.900;5.946;2023-02-18T10:50:48;98834.03;;;16.80;56.85
49311;BME280;35177;45.900;5.946;2023-02-18T10:53:36;98827.28;;;16.72;59.88
49311;BME280;35177;45.900;5.946;2023-02-18T10:56:05;98829.53;;;16.52;65.93
49311;BME280;35177;45.900;5.946;2023-02-18T10:58:35;98822.84;;;16.31;69.77
49311;BME280;35177;45.900;5.946;2023-02-18T11:01:04;98823.06;;;16.43;64.58
49311;BME280;35177;45.900;5.946;2023-02-18T11:03:44;98829.09;;;15.51;70.22
49311;BME280;35177;45.900;5.946;2023-02-18T11:06:18;98811.72;;;16.08;72.09
49311;BME280;35177;45.900;5.946;2023-02-18T11:08:45;98824.59;;;16.18;68.33
49311;BME280;35177;45.900;5.946;2023-02-18T11:11:16;98807.22;;;16.38;67.67
49311;BME280;35177;45.900;5.946;2023-02-18T11:13:42;98804.50;;;16.16;73.02
49311;BME280;35177;45.900;5.946;2023-02-18T11:16:10;98812.59;;;15.86;78.40
49311;BME280;35177;45.900;5.946;2023-02-18T11:18:44;98805.13;;;14.76;90.68
49311;BME280;35177;45.900;5.946;2023-02-18T11:23:47;98797.56;;;15.14;87.17
49311;BME280;35177;45.900;5.946;2023-02-18T11:26:15;98791.66;;;15.83;78.04
49311;BME280;35177;45.900;5.946;2023-02-18T11:28:49;98793.41;;;16.02;80.00
49311;BME280;35177;45.900;5.946;2023-02-18T11:31:23;98786.53;;;16.17;79.86
49311;BME280;35177;45.900;5.946;2023-02-18T11:33:54;98780.16;;;16.25;81.50
49311;BME280;35177;45.900;5.946;2023-02-18T11:38:56;98782.75;;;16.13;78.36
49311;BME280;35177;45.900;5.946;2023-02-18T11:41:41;98778.69;;;16.36;84.73
49311;BME280;35177;45.900;5.946;2023-02-18T11:47:00;98777.91;;;16.45;85.38
49311;BME280;35177;45.900;5.946;2023-02-18T11:49:27;98778.88;;;16.00;83.93
49311;BME280;35177;45.900;5.946;2023-02-18T11:51:54;98774.34;;;16.13;81.35
49311;BME280;35177;45.900;5.946;2023-02-18T11:54:29;98769.00;;;16.43;84.25
49311;BME280;35177;45.900;5.946;2023-02-18T11:56:59;98760.91;;;16.32;87.39
49311;BME280;35177;45.900;5.946;2023-02-18T11:59:26;98758.31;;;16.62;85.35
49311;BME280;35177;45.900;5.946;2023-02-18T12:02:17;98762.59;;;16.60;92.11
49311;BME280;35177;45.900;5.946;2023-02-18T12:04:55;98752.88;;;16.57;90.20
49311;BME280;35177;45.900;5.946;2023-02-18T12:07:25;98753.50;;;16.45;92.23
49311;BME280;35177;45.900;5.946;2023-02-18T12:09:58;98750.03;;;16.40;91.46
49311;BME280;35177;45.900;5.946;2023-02-18T12:12:30;98745.94;;;16.46;99.06
49311;BME280;35177;45.900;5.946;2023-02-18T12:14:58;98732.81;;;16.15;95.38
49311;BME280;35177;45.900;5.946;2023-02-18T12:17:38;98732.41;;;16.48;97.57
49311;BME280;35177;45.900;5.946;2023-02-18T12:20:52;98727.91;;;16.20;93.79
49311;BME280;35177;45.900;5.946;2023-02-18T12:26:12;98726.41;;;16.23;92.67
49311;BME280;35177;45.900;5.946;2023-02-18T12:45:51;98705.59;;;15.66;100.00
49311;BME280;35177;45.900;5.946;2023-02-18T12:48:30;98693.75;;;15.69;100.00
49311;BME280;35177;45.900;5.946;2023-02-18T12:51:09;98679.28;;;16.08;100.00
49311;BME280;35177;45.900;5.946;2023-02-18T12:56:37;98683.31;;;15.84;100.00
49311;BME280;35177;45.900;5.946;2023-02-18T13:15:18;98654.00;;;15.50;100.00
49311;BME280;35177;45.900;5.946;2023-02-18T13:17:46;98646.84;;;15.75;100.00
49311;BME280;35177;45.900;5.946;2023-02-18T13:20:36;98642.84;;;15.58;100.00
49311;BME280;35177;45.900;5.946;2023-02-18T13:23:03;98637.97;;;15.33;100.00
49311;BME280;35177;45.900;5.946;2023-02-18T13:25:34;98634.84;;;15.34;100.00
49311;BME280;35177;45.900;5.946;2023-02-18T13:39:29;98604.69;;;15.31;100.00
49311;BME280;35177;45.900;5.946;2023-02-18T13:47:49;98585.25;;;15.26;100.00
49311;BME280;35177;45.900;5.946;2023-02-18T13:52:40;98582.06;;;15.10;100.00
49311;BME280;35177;45.900;5.946;2023-02-18T13:55:17;98576.53;;;15.27;100.00
49311;BME280;35177;45.900;5.946;2023-02-18T13:58:23;98572.63;;;15.37;100.00
49311;BME280;35177;45.900;5.946;2023-02-18T14:01:12;98576.91;;;14.94;100.00
49311;BME280;35177;45.900;5.946;2023-02-18T14:06:33;98558.19;;;15.04;100.00
49311;BME280;35177;45.900;5.946;2023-02-18T14:11:56;98555.72;;;15.02;100.00
49311;BME280;35177;45.900;5.946;2023-02-18T14:19:54;98544.97;;;14.96;100.00
49311;BME280;35177;45.900;5.946;2023-02-18T14:24:59;98542.38;;;14.99;100.00
49311;BME280;35177;45.900;5.946;2023-02-18T14:27:26;98539.09;;;14.97;100.00
49311;BME280;35177;45.900;5.946;2023-02-18T14:29:52;98532.22;;;15.03;100.00
49311;BME280;35177;45.900;5.946;2023-02-18T14:32:19;98529.97;;;15.14;100.00
49311;BME280;35177;45.900;5.946;2023-02-18T14:37:45;98525.66;;;15.08;100.00
49311;BME280;35177;45.900;5.946;2023-02-18T14:40:32;98525.66;;;15.08;100.00
49311;BME280;35177;45.900;5.946;2023-02-18T14:45:49;98519.06;;;15.04;99.81
49311;BME280;35177;45.900;5.946;2023-02-18T14:51:04;98507.97;;;14.90;100.00
49311;BME280;35177;45.900;5.946;2023-02-18T14:53:42;98513.03;;;14.79;100.00
49311;BME280;35177;45.900;5.946;2023-02-18T14:56:09;98504.69;;;14.88;100.00
49311;BME280;35177;45.900;5.946;2023-02-18T14:58:41;98498.28;;;14.87;100.00
49311;BME280;35177;45.900;5.946;2023-02-18T15:01:26;98496.28;;;14.88;100.00
49311;BME280;35177;45.900;5.946;2023-02-18T15:03:53;98490.38;;;14.89;100.00
49311;BME280;35177;45.900;5.946;2023-02-18T15:06:35;98498.72;;;14.81;100.00
49311;BME280;35177;45.900;5.946;2023-02-18T15:11:43;98491.28;;;14.76;100.00
49311;BME280;35177;45.900;5.946;2023-02-18T15:14:13;98492.13;;;14.76;100.00
49311;BME280;35177;45.900;5.946;2023-02-18T15:16:41;98488.81;;;14.74;100.00